Time;durP1;ratioP1;P1;durP2;ratioP2;P2;SDS_P1;SDS_P2;PMS_P1;PMS_P2;Temp;Humidity;BMP_temperature;BMP_pressure;BME280_temperature;BME280_humidity;BME280_pressure;Samples;Min_cycle;Max_cycle;Signal;HPM_P1;HPM_P2
2022/11/24 00:02:12;;;;;;;4.50;4.20;;;;;;;6.27;100.00;100183.78;6175523;23;20079;-73
2022/11/24 00:04:39;;;;;;;4.05;3.85;;;;;;;6.17;100.00;100161.66;6151849;23;20216;-73
2022/11/24 00:07:05;;;;;;;4.25;4.05;;;;;;;6.32;100.00;100168.81;6160613;23;20087;-73
2022/11/24 00:09:32;;;;;;;14.50;4.35;;;;;;;5.87;100.00;100094.28;6138208;23;20148;-73
2022/11/24 00:12:00;;;;;;;3.80;3.70;;;;;;;6.46;100.00;100183.03;6150003;23;20103;-74
2022/11/24 00:14:26;;;;;;;7.38;3.70;;;;;;;6.49;100.00;100167.25;6162916;23;20443;-72
2022/11/24 00:16:52;;;;;;;4.00;3.80;;;;;;;6.48;100.00;100163.78;6151265;23;20412;-73
2022/11/24 00:19:19;;;;;;;5.10;4.72;;;;;;;6.26;100.00;100122.19;6178204;23;20421;-73
2022/11/24 00:21:45;;;;;;;3.80;3.60;;;;;;;6.57;100.00;100170.34;6152218;23;20463;-73
2022/11/24 00:24:12;;;;;;;7.10;4.07;;;;;;;6.20;100.00;100106.81;6180691;23;20049;-74
2022/11/24 00:26:38;;;;;;;4.13;3.92;;;;;;;6.57;100.00;100139.06;6146775;23;20036;-74
2022/11/24 00:29:07;;;;;;;5.25;4.85;;;;;;;6.42;100.00;100090.25;6181132;23;20136;-71
2022/11/24 00:31:39;;;;;;;3.95;3.75;;;;;;;6.45;100.00;100124.81;6129840;23;20041;-71
2022/11/24 00:34:10;;;;;;;5.03;4.75;;;;;;;6.85;100.00;100146.50;6180405;23;20040;-73
2022/11/24 00:36:38;;;;;;;4.25;4.05;;;;;;;6.74;100.00;100148.75;6134385;23;20413;-72
2022/11/24 00:39:06;;;;;;;4.60;4.28;;;;;;;6.78;100.00;100169.41;6176487;23;20425;-72
2022/11/24 00:41:33;;;;;;;6.93;4.43;;;;;;;6.24;100.00;100055.44;6134179;23;20081;-71
2022/11/24 00:44:00;;;;;;;4.43;4.15;;;;;;;6.76;100.00;100146.94;6179116;23;20196;-71
2022/11/24 00:46:27;;;;;;;4.70;4.50;;;;;;;6.72;100.00;100147.97;6146247;23;20032;-72
2022/11/24 00:48:54;;;;;;;3.85;3.75;;;;;;;6.78;100.00;100140.72;6179934;23;20017;-72
2022/11/24 00:51:24;;;;;;;4.35;4.15;;;;;;;6.19;100.00;100053.88;6154190;23;20070;-74
2022/11/24 00:53:52;;;;;;;4.47;4.22;;;;;;;6.61;100.00;100124.97;6177447;23;20253;-72
2022/11/24 00:56:18;;;;;;;5.82;5.38;;;;;;;6.68;100.00;100156.88;6120885;23;20017;-72
2022/11/24 00:58:45;;;;;;;4.47;4.18;;;;;;;6.64;100.00;100161.38;6040191;23;20283;-71
2022/11/24 01:01:30;;;;;;;4.03;3.80;;;;;;;6.45;100.00;100134.41;6155000;23;20031;-72
2022/11/24 01:04:00;;;;;;;3.90;3.70;;;;;;;6.14;100.00;100081.88;6125435;23;20021;-72
2022/11/24 01:06:28;;;;;;;4.78;4.28;;;;;;;6.13;100.00;100095.84;6145550;23;20020;-72
2022/11/24 01:08:56;;;;;;;4.78;3.90;;;;;;;6.73;100.00;100180.94;6195269;23;20019;-73
2022/11/24 01:11:25;;;;;;;4.28;3.95;;;;;;;6.76;100.00;100186.88;6155270;23;20032;-72
2022/11/24 01:13:56;;;;;;;4.55;4.15;;;;;;;6.45;100.00;100134.41;6146055;23;20025;-72
2022/11/24 01:16:33;;;;;;;4.20;4.00;;;;;;;6.77;100.00;100190.34;6159808;23;20020;-72
2022/11/24 01:19:00;;;;;;;5.13;4.72;;;;;;;6.80;100.00;100187.59;6145721;23;20029;-74
2022/11/24 01:21:26;;;;;;;4.60;4.40;;;;;;;6.56;100.00;100142.59;6176833;23;20343;-72
2022/11/24 01:23:53;;;;;;;4.18;3.97;;;;;;;6.43;100.00;100103.19;6151121;23;20029;-72
2022/11/24 01:26:21;;;;;;;4.43;4.13;;;;;;;7.02;100.00;100197.91;6177702;23;20549;-72
2022/11/24 01:28:52;;;;;;;4.72;4.43;;;;;;;7.06;100.00;100212.50;6147890;23;20215;-72
2022/11/24 01:31:18;;;;;;;5.55;5.10;;;;;;;7.04;100.00;100193.47;6181155;23;20104;-72
2022/11/24 01:33:45;;;;;;;4.00;3.80;;;;;;;6.94;100.00;100164.34;6151534;23;20031;-72
2022/11/24 01:36:11;;;;;;;4.72;4.45;;;;;;;7.03;100.00;100183.94;6179226;23;20032;-72
2022/11/24 01:38:38;;;;;;;4.45;3.90;;;;;;;6.46;100.00;100112.66;6148154;23;20357;-72
2022/11/24 01:41:07;;;;;;;4.00;3.80;;;;;;;6.75;100.00;100159.09;6183139;23;20210;-72
2022/11/24 01:43:33;;;;;;;3.83;3.63;;;;;;;6.85;100.00;100193.44;6151467;23;20372;-72
2022/11/24 01:46:10;;;;;;;3.80;3.70;;;;;;;6.74;100.00;100190.47;6183408;23;20036;-73
2022/11/24 01:48:42;;;;;;;3.88;3.67;;;;;;;6.35;100.00;100142.66;6148149;23;20028;-72
2022/11/24 01:51:13;;;;;;;3.83;3.70;;;;;;;6.42;100.00;100151.03;6178057;23;20016;-72
2022/11/24 01:53:44;;;;;;;8.18;4.90;;;;;;;6.70;100.00;100189.78;6147564;23;20082;-72
2022/11/24 01:56:12;;;;;;;4.32;4.03;;;;;;;6.60;100.00;100157.19;6184947;23;20020;-72
2022/11/24 01:58:40;;;;;;;4.20;3.90;;;;;;;7.07;100.00;100227.22;6146599;23;20445;-72
2022/11/24 02:01:07;;;;;;;4.03;3.80;;;;;;;6.87;100.00;100201.22;6175984;23;20028;-72
2022/11/24 02:03:38;;;;;;;4.47;4.18;;;;;;;6.27;100.00;100083.94;6146487;23;20017;-72
2022/11/24 02:06:11;;;;;;;7.22;5.28;;;;;;;7.15;100.00;100226.88;6147114;23;20028;-73
2022/11/24 02:08:57;;;;;;;4.95;4.53;;;;;;;7.17;100.00;100231.13;6172973;23;20024;-72
2022/11/24 02:11:26;;;;;;;4.55;4.05;;;;;;;7.21;100.00;100233.59;6153855;23;20082;-72
2022/11/24 02:13:54;;;;;;;4.10;3.90;;;;;;;7.23;100.00;100237.81;6177134;23;20020;-72
2022/11/24 02:16:20;;;;;;;4.20;4.00;;;;;;;6.63;100.00;100144.00;6147894;23;20040;-72
2022/11/24 02:18:47;;;;;;;4.22;3.88;;;;;;;6.87;100.00;100175.13;6148554;23;20388;-72
2022/11/24 02:21:15;;;;;;;4.00;3.80;;;;;;;7.18;100.00;100243.25;6175478;23;20028;-72
2022/11/24 02:24:00;;;;;;;6.68;4.57;;;;;;;6.89;100.00;100222.84;6146545;23;20086;-73
2022/11/24 02:26:40;;;;;;;9.48;4.63;;;;;;;6.99;100.00;100245.00;6148802;23;20315;-72
2022/11/24 02:29:08;;;;;;;3.80;3.70;;;;;;;6.91;100.00;100255.78;6146735;23;20025;-72
2022/11/24 02:31:34;;;;;;;5.60;4.07;;;;;;;6.62;100.00;100207.50;6179233;23;20044;-72
2022/11/24 02:34:01;;;;;;;10.35;4.43;;;;;;;6.87;100.00;100259.44;6153545;23;20561;-72
2022/11/24 02:36:27;;;;;;;5.40;4.65;;;;;;;6.22;100.00;100167.53;6155601;23;20041;-72
2022/11/24 02:38:53;;;;;;;4.55;4.25;;;;;;;6.80;100.00;100263.22;6153852;23;20021;-72
2022/11/24 02:41:24;;;;;;;3.72;3.63;;;;;;;6.51;100.00;100222.75;6189083;23;20040;-72
2022/11/24 02:43:57;;;;;;;4.20;4.00;;;;;;;6.15;100.00;100159.13;6172558;23;20025;-72
2022/11/24 02:46:24;;;;;;;4.28;4.05;;;;;;;6.69;100.00;100249.81;6181471;23;20111;-72
2022/11/24 02:48:51;;;;;;;5.10;4.70;;;;;;;5.98;100.00;100141.59;6151882;23;20025;-72
2022/11/24 02:51:18;;;;;;;4.78;4.50;;;;;;;6.46;100.00;100228.19;6182037;23;20024;-73
2022/11/24 02:53:44;;;;;;;4.78;4.47;;;;;;;6.58;100.00;100251.13;6145478;23;20070;-72
2022/11/24 02:56:11;;;;;;;5.95;4.45;;;;;;;6.61;100.00;100278.81;6173280;23;20020;-72
2022/11/24 02:58:38;;;;;;;5.35;4.50;;;;;;;5.95;100.00;100180.81;6152342;23;20025;-72
2022/11/24 03:01:04;;;;;;;3.90;3.70;;;;;;;6.49;100.00;100272.34;6182923;23;20028;-73
2022/11/24 03:03:30;;;;;;;4.82;4.43;;;;;;;6.44;100.00;100276.94;6159962;23;20086;-73
2022/11/24 03:05:57;;;;;;;4.00;3.80;;;;;;;5.79;100.00;100185.78;6185091;23;20092;-72
2022/11/24 03:08:23;;;;;;;4.43;3.90;;;;;;;5.09;100.00;100080.16;6150519;23;20215;-72
2022/11/24 03:10:50;;;;;;;3.97;3.78;;;;;;;5.59;100.00;100181.38;6183612;23;20008;-73
2022/11/24 03:13:16;;;;;;;4.13;3.92;;;;;;;6.29;100.00;100314.88;6160682;23;20412;-72
2022/11/24 03:15:42;;;;;;;4.50;4.05;;;;;;;5.90;100.00;100237.41;6178598;23;20024;-73
2022/11/24 03:18:09;;;;;;;4.35;4.05;;;;;;;6.24;100.00;100296.00;6148591;23;20025;-73
2022/11/24 03:20:35;;;;;;;4.05;3.85;;;;;;;5.87;100.00;100228.88;6149010;23;20074;-72
2022/11/24 03:23:02;;;;;;;3.63;3.53;;;;;;;5.47;100.00;100155.84;6185812;23;20026;-73
2022/11/24 03:25:28;;;;;;;4.93;4.47;;;;;;;6.34;100.00;100297.31;6149509;23;20029;-73
2022/11/24 03:27:56;;;;;;;4.18;3.97;;;;;;;6.46;100.00;100313.38;6144883;23;20029;-73
2022/11/24 03:30:23;;;;;;;4.25;3.95;;;;;;;4.19;100.00;99960.56;6151397;23;20017;-73
2022/11/24 03:32:53;;;;;;;3.78;3.67;;;;;;;5.36;100.00;100135.41;6152320;23;20454;-72
2022/11/24 03:35:20;;;;;;;9.20;3.88;;;;;;;6.54;100.00;100324.31;6181487;23;20340;-73
2022/11/24 03:37:47;;;;;;;5.88;3.65;;;;;;;6.42;100.00;100298.75;6153864;23;20040;-73
2022/11/24 03:40:14;;;;;;;3.58;3.47;;;;;;;6.38;100.00;100287.59;6186591;23;20198;-73
2022/11/24 03:42:40;;;;;;;4.18;3.88;;;;;;;6.47;100.00;100297.63;6149810;23;20037;-72
2022/11/24 03:45:07;;;;;;;4.28;3.92;;;;;;;5.87;100.00;100214.06;6156044;23;20074;-73
2022/11/24 03:47:53;;;;;;;4.18;3.97;;;;;;;5.95;100.00;100212.06;6161673;23;20113;-72
2022/11/24 03:50:20;;;;;;;4.57;4.25;;;;;;;6.67;100.00;100329.84;6148149;23;20025;-73
2022/11/24 03:52:46;;;;;;;5.47;5.13;;;;;;;6.69;100.00;100325.41;6177336;23;20086;-73
2022/11/24 03:55:12;;;;;;;14.25;4.25;;;;;;;6.71;100.00;100336.63;6173503;23;20004;-72
2022/11/24 03:57:39;;;;;;;5.65;5.18;;;;;;;6.21;100.00;100238.78;6180109;23;20016;-73
2022/11/24 04:00:06;;;;;;;4.40;4.05;;;;;;;6.65;100.00;100313.44;6155533;23;20037;-73
2022/11/24 04:02:32;;;;;;;5.18;4.20;;;;;;;6.79;100.00;100331.94;6151290;23;20143;-73
2022/11/24 04:04:59;;;;;;;4.03;3.83;;;;;;;6.61;100.00;100296.22;6184945;23;20020;-72
2022/11/24 04:07:25;;;;;;;3.97;3.78;;;;;;;6.85;100.00;100326.47;6151263;23;20032;-73
2022/11/24 04:09:52;;;;;;;4.63;4.32;;;;;;;6.55;100.00;100286.88;6187995;23;20009;-72
2022/11/24 04:15:03;;;;;;;3.60;3.50;;;;;;;6.58;100.00;100279.78;6148861;23;20312;-73
2022/11/24 04:17:30;;;;;;;4.03;3.88;;;;;;;6.92;100.00;100327.06;6150028;23;20365;-73
2022/11/24 04:19:56;;;;;;;4.43;4.15;;;;;;;6.68;100.00;100287.25;6151034;23;20021;-73
2022/11/24 04:22:22;;;;;;;5.35;4.20;;;;;;;6.61;100.00;100284.03;6155473;23;20100;-73
2022/11/24 04:24:49;;;;;;;5.15;4.18;;;;;;;6.93;100.00;100333.97;6145293;23;20344;-73
2022/11/24 04:27:15;;;;;;;4.18;3.97;;;;;;;5.82;100.00;100156.16;6156522;23;20325;-72
2022/11/24 04:29:41;;;;;;;13.32;4.47;;;;;;;6.94;100.00;100336.50;6149014;23;20403;-72
2022/11/24 04:32:08;;;;;;;9.85;4.30;;;;;;;6.98;100.00;100337.25;6175299;23;20033;-72
2022/11/24 04:34:34;;;;;;;4.72;4.53;;;;;;;6.84;100.00;100318.72;6146905;23;20029;-73
2022/11/24 04:37:01;;;;;;;4.00;3.80;;;;;;;6.48;100.00;100251.59;6185335;23;20057;-73
2022/11/24 04:39:28;;;;;;;4.65;4.45;;;;;;;6.84;100.00;100327.41;6146703;23;20021;-73
2022/11/24 04:41:54;;;;;;;4.85;4.45;;;;;;;6.83;100.00;100307.44;6151782;23;20020;-73
2022/11/24 04:44:21;;;;;;;4.30;4.10;;;;;;;6.40;100.00;100254.50;6155696;23;20032;-73
2022/11/24 04:46:47;;;;;;;5.15;4.75;;;;;;;7.05;100.00;100354.31;6178648;23;20020;-73
2022/11/24 04:49:13;;;;;;;4.57;4.18;;;;;;;6.48;100.00;100262.00;6149542;23;20029;-73
2022/11/24 04:51:40;;;;;;;4.47;4.28;;;;;;;6.70;100.00;100291.47;6179835;23;20064;-72
2022/11/24 04:54:09;;;;;;;4.55;4.13;;;;;;;7.09;100.00;100357.63;6149043;23;20020;-71
2022/11/24 04:56:36;;;;;;;11.80;4.55;;;;;;;6.01;100.00;100178.84;6179286;23;20196;-72
2022/11/24 04:59:03;;;;;;;9.73;4.32;;;;;;;6.90;100.00;100321.06;6146099;23;20506;-73
2022/11/24 05:01:34;;;;;;;4.20;3.92;;;;;;;7.09;100.00;100361.09;6149453;23;20023;-73
2022/11/24 05:04:00;;;;;;;4.70;4.38;;;;;;;6.82;100.00;100312.72;6125343;23;20238;-73
2022/11/24 05:06:27;;;;;;;7.40;4.45;;;;;;;7.18;100.00;100354.66;6152513;23;20463;-73
2022/11/24 05:08:53;;;;;;;4.55;4.13;;;;;;;7.11;100.00;100337.53;6135543;23;20013;-73
2022/11/24 05:11:20;;;;;;;8.90;4.88;;;;;;;7.32;100.00;100354.88;6157106;23;20029;-73
2022/11/24 05:13:46;;;;;;;11.20;3.85;;;;;;;6.92;100.00;100280.94;6181062;23;20009;-73
2022/11/24 05:16:12;;;;;;;4.78;4.30;;;;;;;7.30;100.00;100350.66;6125400;23;20548;-73
2022/11/24 05:18:39;;;;;;;7.05;4.93;;;;;;;7.17;100.00;100330.28;6183558;23;20014;-74
2022/11/24 05:21:05;;;;;;;4.10;3.90;;;;;;;7.50;100.00;100389.75;6147687;23;20031;-71
2022/11/24 05:23:32;;;;;;;4.38;4.15;;;;;;;7.11;100.00;100334.94;6181246;23;20065;-71
2022/11/24 05:26:02;;;;;;;4.57;4.18;;;;;;;7.45;100.00;100393.50;6145121;23;20475;-72
2022/11/24 05:28:29;;;;;;;4.72;4.35;;;;;;;6.86;100.00;100336.00;6152552;23;20361;-71
2022/11/24 05:31:00;;;;;;;4.85;4.60;;;;;;;7.10;100.00;100382.84;6179699;23;20024;-71
2022/11/24 05:33:28;;;;;;;4.40;4.20;;;;;;;7.33;100.00;100415.75;6155873;23;20044;-71
2022/11/24 05:36:00;;;;;;;5.85;4.53;;;;;;;7.33;100.00;100411.38;6187704;23;20267;-71
2022/11/24 05:38:26;;;;;;;10.00;4.47;;;;;;;7.28;100.00;100409.91;6150703;23;20025;-74
2022/11/24 05:40:52;;;;;;;9.23;4.97;;;;;;;7.16;100.00;100385.19;6182750;23;20032;-72
2022/11/24 05:43:19;;;;;;;10.40;4.78;;;;;;;7.03;100.00;100377.00;6151809;23;20439;-72
2022/11/24 05:45:45;;;;;;;5.15;4.70;;;;;;;5.74;100.00;100176.44;6176332;23;20105;-72
2022/11/24 05:48:14;;;;;;;13.57;4.95;;;;;;;6.44;100.00;100299.53;6146007;23;20224;-72
2022/11/24 05:50:41;;;;;;;4.15;3.95;;;;;;;7.03;100.00;100420.53;6179810;23;20030;-72
2022/11/24 05:53:09;;;;;;;5.63;4.70;;;;;;;7.09;100.00;100430.69;6141705;23;20025;-72
2022/11/24 05:55:37;;;;;;;6.38;4.20;;;;;;;7.04;100.00;100406.59;6179122;23;20085;-72
2022/11/24 05:58:06;;;;;;;5.85;4.55;;;;;;;6.47;100.00;100320.25;6148911;23;20396;-72
2022/11/24 06:00:34;;;;;;;5.05;4.68;;;;;;;7.13;100.00;100435.72;6175520;23;20441;-72
2022/11/24 06:03:01;;;;;;;4.20;3.88;;;;;;;7.36;100.00;100445.19;6153062;23;20178;-72
2022/11/24 06:05:28;;;;;;;4.70;4.03;;;;;;;6.85;100.00;100343.88;6172520;23;20032;-72
2022/11/24 06:07:54;;;;;;;4.70;4.43;;;;;;;7.54;100.00;100434.88;6153161;23;20022;-72
2022/11/24 06:10:25;;;;;;;4.07;3.88;;;;;;;7.64;100.00;100443.13;6188469;23;20336;-71
2022/11/24 06:12:52;;;;;;;4.13;3.92;;;;;;;7.64;100.00;100444.00;6151054;23;20024;-72
2022/11/24 06:15:18;;;;;;;5.65;4.32;;;;;;;7.56;100.00;100435.66;6175730;23;20020;-72
2022/11/24 06:17:53;;;;;;;4.00;3.80;;;;;;;7.69;100.00;100457.69;6145962;23;20009;-71
2022/11/24 06:20:20;;;;;;;6.68;3.70;;;;;;;7.33;100.00;100405.31;6172656;23;20016;-72
2022/11/24 06:22:47;;;;;;;4.50;4.20;;;;;;;7.03;100.00;100378.78;6147219;23;20046;-72
2022/11/24 06:25:15;;;;;;;4.35;4.05;;;;;;;7.30;100.00;100432.41;6147385;23;20291;-72
2022/11/24 06:27:41;;;;;;;4.13;3.90;;;;;;;7.08;100.00;100419.41;6156660;23;20040;-72
2022/11/24 06:30:09;;;;;;;9.43;3.67;;;;;;;6.93;100.00;100394.81;6153256;23;20021;-72
2022/11/24 06:32:35;;;;;;;5.00;4.18;;;;;;;7.05;100.00;100423.91;6175819;23;20286;-71
2022/11/24 06:35:02;;;;;;;4.32;4.03;;;;;;;7.30;100.00;100458.50;6157055;23;20050;-72
2022/11/24 06:37:28;;;;;;;4.10;3.90;;;;;;;7.33;100.00;100467.97;6183343;23;20514;-72
2022/11/24 06:39:55;;;;;;;4.80;4.30;;;;;;;7.06;100.00;100418.63;6152456;23;20015;-72
2022/11/24 06:42:21;;;;;;;4.70;4.45;;;;;;;7.51;100.00;100480.22;6151460;23;20075;-72
2022/11/24 06:44:47;;;;;;;4.57;4.28;;;;;;;6.96;100.00;100415.56;6157652;23;20013;-72
2022/11/24 06:47:14;;;;;;;4.10;3.90;;;;;;;6.86;100.00;100402.97;6143375;23;20016;-72
2022/11/24 06:49:40;;;;;;;3.95;3.75;;;;;;;7.24;100.00;100474.44;6161829;23;20324;-71
2022/11/24 06:52:07;;;;;;;3.90;3.70;;;;;;;6.76;100.00;100398.13;6147885;23;20017;-72
2022/11/24 06:54:33;;;;;;;4.18;3.97;;;;;;;6.83;100.00;100416.97;6144766;23;20276;-72
2022/11/24 06:57:00;;;;;;;4.00;3.80;;;;;;;7.22;100.00;100486.69;6173465;23;20032;-72
2022/11/24 06:59:26;;;;;;;4.00;3.80;;;;;;;7.23;100.00;100482.31;6155290;23;20076;-72
2022/11/24 07:01:53;;;;;;;3.80;3.63;;;;;;;7.09;100.00;100499.38;6151536;23;20058;-72
2022/11/24 07:04:19;;;;;;;3.90;3.70;;;;;;;6.75;100.00;100445.13;6145176;23;20032;-72
2022/11/24 07:06:46;;;;;;;4.22;4.03;;;;;;;6.92;100.00;100501.84;6157908;23;20384;-72
2022/11/24 07:09:13;;;;;;;3.90;3.70;;;;;;;6.54;100.00;100458.13;6128627;23;20021;-74
2022/11/24 07:11:40;;;;;;;4.05;3.85;;;;;;;6.39;100.00;100456.97;6182877;23;20096;-72
2022/11/24 07:14:06;;;;;;;3.90;3.70;;;;;;;6.61;100.00;100513.47;6148225;23;20403;-72
2022/11/24 07:16:33;;;;;;;4.40;4.20;;;;;;;6.56;100.00;100557.97;6152699;23;20169;-72
2022/11/24 07:18:59;;;;;;;4.75;4.35;;;;;;;6.34;100.00;100520.59;6148942;23;20498;-72
2022/11/24 07:21:28;;;;;;;4.10;3.90;;;;;;;6.07;100.00;100476.41;6188804;23;20094;-71
2022/11/24 07:23:56;;;;;;;4.10;3.90;;;;;;;6.20;100.00;100508.09;6150117;23;20071;-69
2022/11/24 07:26:23;;;;;;;3.80;3.60;;;;;;;6.67;100.00;100561.94;6156739;23;20451;-69
2022/11/24 07:28:49;;;;;;;3.90;3.70;;;;;;;6.47;100.00;100531.41;6134968;23;20035;-69
2022/11/24 07:31:18;;;;;;;3.60;3.50;;;;;;;6.72;100.00;100571.28;6186167;23;20032;-69
2022/11/24 07:33:50;;;;;;;4.20;4.00;;;;;;;6.83;100.00;100583.06;6151777;23;20051;-69
2022/11/24 07:36:16;;;;;;;3.80;3.70;;;;;;;6.63;100.00;100536.88;6179874;23;20114;-69
2022/11/24 07:38:43;;;;;;;11.20;3.65;;;;;;;6.94;100.00;100581.75;6148429;23;20077;-69
2022/11/24 07:41:11;;;;;;;4.93;4.72;;;;;;;7.05;100.00;100590.91;6183443;23;20032;-69
2022/11/24 07:43:38;;;;;;;3.53;3.42;;;;;;;7.08;100.00;100596.03;6171592;23;20029;-69
2022/11/24 07:46:06;;;;;;;4.07;3.80;;;;;;;7.08;100.00;100601.25;6184455;23;20421;-69
2022/11/24 07:48:33;;;;;;;4.05;3.85;;;;;;;6.62;100.00;100562.13;6150195;23;20091;-69
2022/11/24 07:51:01;;;;;;;4.20;4.00;;;;;;;7.01;100.00;100604.97;6178679;23;20215;-69
2022/11/24 07:53:28;;;;;;;5.38;3.97;;;;;;;7.11;100.00;100621.97;6148155;23;20320;-68
2022/11/24 07:55:59;;;;;;;3.92;3.72;;;;;;;7.08;100.00;100614.28;6189324;23;20525;-69
2022/11/24 07:58:29;;;;;;;5.80;3.92;;;;;;;7.19;100.00;100632.97;6153492;23;20025;-69
2022/11/24 08:00:58;;;;;;;4.47;4.28;;;;;;;7.13;100.00;100610.56;6160238;23;20017;-71
2022/11/24 08:03:25;;;;;;;3.70;3.60;;;;;;;7.37;100.00;100639.22;6151327;23;20021;-71
2022/11/24 08:05:56;;;;;;;4.05;3.85;;;;;;;7.27;100.00;100614.41;6157887;23;20070;-71
2022/11/24 08:08:42;;;;;;;3.80;3.70;;;;;;;7.48;100.00;100650.09;6152644;23;20384;-71
2022/11/24 08:11:11;;;;;;;4.00;3.80;;;;;;;6.73;100.00;100518.22;6176055;23;20046;-69
2022/11/24 08:13:38;;;;;;;5.53;4.47;;;;;;;7.63;100.00;100651.22;6154460;23;20423;-71
2022/11/24 08:16:13;;;;;;;4.13;3.92;;;;;;;7.78;100.00;100655.84;6177590;23;20291;-68
2022/11/24 08:18:41;;;;;;;4.45;4.15;;;;;;;7.74;100.00;100645.59;6148176;23;20405;-69
2022/11/24 08:21:11;;;;;;;4.15;3.95;;;;;;;6.83;100.00;100478.72;6167162;23;20040;-69
2022/11/24 08:23:38;;;;;;;6.68;4.97;;;;;;;7.80;100.00;100640.09;6145807;23;20548;-69
2022/11/24 08:26:07;;;;;;;4.10;3.90;;;;;;;8.05;100.00;100662.59;6160191;23;20040;-69
2022/11/24 08:28:35;;;;;;;17.30;3.83;;;;;;;8.04;100.00;100663.47;6135773;23;20037;-69
2022/11/24 08:31:07;;;;;;;5.25;4.95;;;;;;;8.06;100.00;100661.66;6171071;23;20031;-69
2022/11/24 08:33:34;;;;;;;4.50;4.10;;;;;;;7.98;100.00;100649.78;6148042;23;20451;-69
2022/11/24 08:36:27;;;;;;;4.53;4.32;;;;;;;8.12;100.00;100661.41;6131331;23;20204;-69
2022/11/24 08:38:56;;;;;;;4.00;3.80;;;;;;;7.86;100.00;100618.06;6136775;23;20419;-69
2022/11/24 08:45:13;;;;;;;5.35;4.93;;;;;;;8.43;100.00;100675.81;6167432;23;20053;-68
2022/11/24 08:59:12;;;;;;;4.38;4.05;;;;;;;7.22;100.00;100462.34;6143358;23;20150;-69
2022/11/24 09:01:38;;;;;;;4.40;4.20;;;;;;;8.65;100.00;100692.25;6184367;23;20482;-68
2022/11/24 09:04:05;;;;;;;6.80;4.65;;;;;;;8.67;100.00;100694.81;6148239;23;20025;-68
2022/11/24 09:06:31;;;;;;;4.30;4.10;;;;;;;8.67;100.00;100689.56;6184365;23;20024;-68
2022/11/24 09:08:58;;;;;;;5.95;4.60;;;;;;;8.27;100.00;100625.91;6147233;23;20031;-69
2022/11/24 09:11:26;;;;;;;4.40;4.10;;;;;;;8.68;100.00;100688.63;6151439;23;20020;-68
2022/11/24 09:13:54;;;;;;;4.30;4.10;;;;;;;8.38;100.00;100657.69;6154175;23;20235;-68
2022/11/24 09:16:24;;;;;;;4.60;4.30;;;;;;;8.82;100.00;100706.34;6156981;23;20032;-68
2022/11/24 09:18:59;;;;;;;4.15;3.95;;;;;;;8.96;100.00;100703.94;6153804;23;20092;-69
2022/11/24 09:21:26;;;;;;;4.45;4.15;;;;;;;8.56;100.00;100633.34;6128447;23;20070;-69
2022/11/24 09:23:53;;;;;;;4.65;4.35;;;;;;;9.09;100.00;100710.34;6151459;23;20017;-69
2022/11/24 09:26:25;;;;;;;4.60;4.40;;;;;;;9.11;100.00;100718.13;6159218;23;20319;-69
2022/11/24 09:28:53;;;;;;;4.93;4.55;;;;;;;8.99;100.00;100712.53;6160951;23;20016;-69
2022/11/24 09:31:23;;;;;;;5.10;4.60;;;;;;;8.83;100.00;100721.97;6146339;23;20032;-69
2022/11/24 09:33:50;;;;;;;5.40;4.13;;;;;;;8.85;100.00;100725.38;6177023;23;20458;-69
2022/11/24 09:36:18;;;;;;;4.90;4.47;;;;;;;8.40;100.00;100648.00;6147565;23;20099;-70
2022/11/24 09:38:44;;;;;;;6.55;4.50;;;;;;;8.82;100.00;100719.44;6176661;23;20024;-69
2022/11/24 09:41:17;;;;;;;9.20;4.22;;;;;;;8.77;100.00;100737.97;6145391;23;20017;-69
2022/11/24 09:44:07;;;;;;;4.82;4.53;;;;;;;7.69;100.00;100575.22;6173460;23;20032;-69
2022/11/24 09:47:04;;;;;;;5.40;5.10;;;;;;;8.83;100.00;100747.31;6144768;23;20094;-69
2022/11/24 09:49:54;;;;;;;4.43;4.13;;;;;;;8.98;100.00;100755.34;6147085;23;20032;-69
2022/11/24 09:52:41;;;;;;;4.40;4.20;;;;;;;9.06;100.00;100741.91;6147981;23;20024;-69
2022/11/24 09:55:23;;;;;;;4.65;4.38;;;;;;;9.08;100.00;100740.06;6146165;23;20024;-70
2022/11/24 09:58:02;;;;;;;5.10;4.80;;;;;;;8.91;100.00;100690.25;6158780;23;20274;-70
2022/11/24 10:00:29;;;;;;;4.15;3.95;;;;;;;9.31;100.00;100736.38;6147695;23;20062;-70
2022/11/24 10:02:56;;;;;;;4.75;4.55;;;;;;;9.36;100.00;100734.41;6152655;23;20157;-70
2022/11/24 10:05:28;;;;;;;4.35;3.95;;;;;;;9.46;100.00;100758.41;6145776;23;20403;-70
2022/11/24 10:08:08;;;;;;;5.68;5.05;;;;;;;9.51;100.00;100750.31;6154666;23;20029;-69
2022/11/24 10:11:02;;;;;;;10.43;4.53;;;;;;;9.69;100.00;100774.81;6178888;23;20025;-70
2022/11/24 10:13:45;;;;;;;5.10;4.70;;;;;;;9.49;100.00;100729.44;6150108;23;20037;-69
2022/11/24 10:16:39;;;;;;;4.53;4.32;;;;;;;9.83;100.00;100774.16;6145828;23;20025;-70
2022/11/24 10:19:38;;;;;;;4.22;4.03;;;;;;;10.05;100.00;100785.31;6181175;23;20501;-70
2022/11/24 10:22:30;;;;;;;7.05;4.70;;;;;;;9.99;100.00;100783.81;6138562;23;20032;-69
2022/11/24 10:25:15;;;;;;;17.95;4.50;;;;;;;9.98;100.00;100784.75;6172964;23;20361;-70
2022/11/24 10:27:53;;;;;;;4.88;4.57;;;;;;;10.06;100.00;100786.16;6143652;23;20032;-69
2022/11/24 10:30:22;;;;;;;5.22;4.82;;;;;;;10.17;100.00;100794.34;6150043;23;20025;-69
2022/11/24 10:32:58;;;;;;;5.43;5.03;;;;;;;10.19;99.61;100784.63;6147721;23;20561;-69
2022/11/24 10:35:33;;;;;;;4.50;4.00;;;;;;;10.16;98.68;100797.88;6176160;23;20036;-69
2022/11/24 10:38:25;;;;;;;5.25;4.85;;;;;;;10.06;98.92;100768.63;6147169;23;20021;-69
2022/11/24 10:41:10;;;;;;;8.50;4.75;;;;;;;10.12;98.79;100760.50;6156172;23;20032;-68
2022/11/24 10:43:40;;;;;;;6.75;4.97;;;;;;;10.21;98.00;100768.84;6141449;23;20354;-69
2022/11/24 10:46:25;;;;;;;7.88;4.72;;;;;;;10.11;97.67;100747.44;6170408;23;20076;-69
2022/11/24 10:49:01;;;;;;;4.32;4.13;;;;;;;10.44;97.52;100791.31;6124186;23;20028;-70
2022/11/24 10:51:30;;;;;;;4.80;4.43;;;;;;;10.49;97.07;100808.53;6174347;23;20442;-69
2022/11/24 10:54:24;;;;;;;5.35;4.95;;;;;;;10.45;96.57;100793.88;6156403;23;20239;-69
2022/11/24 10:56:52;;;;;;;4.55;4.35;;;;;;;10.40;96.72;100795.00;6163285;23;20024;-70
2022/11/24 10:59:23;;;;;;;4.40;4.20;;;;;;;10.58;96.88;100799.31;6153576;23;20604;-69
2022/11/24 11:01:52;;;;;;;5.07;4.68;;;;;;;10.66;95.93;100796.31;6184048;23;20087;-69
2022/11/24 11:04:27;;;;;;;6.38;5.07;;;;;;;10.64;95.93;100790.31;6150659;23;20016;-69
2022/11/24 11:07:07;;;;;;;4.65;4.40;;;;;;;10.85;95.37;100801.50;6182194;23;20039;-69
2022/11/24 11:09:34;;;;;;;4.78;4.50;;;;;;;10.92;94.00;100792.34;6151213;23;20045;-70
2022/11/24 11:12:10;;;;;;;5.50;5.13;;;;;;;10.44;92.73;100712.59;6185321;23;20020;-70
2022/11/24 11:15:14;;;;;;;14.63;4.57;;;;;;;10.70;92.54;100761.97;6156023;23;20036;-69
2022/11/24 11:17:43;;;;;;;4.70;4.50;;;;;;;10.61;92.05;100719.63;6178204;23;20028;-69
2022/11/24 11:20:21;;;;;;;5.53;4.60;;;;;;;11.15;92.01;100778.88;6149407;23;20080;-69
2022/11/24 11:22:49;;;;;;;4.90;4.50;;;;;;;11.23;90.90;100780.25;6152655;23;20032;-69
2022/11/24 11:25:31;;;;;;;5.93;5.35;;;;;;;11.35;90.93;100787.47;6162183;23;20021;-69
2022/11/24 11:28:30;;;;;;;5.13;4.68;;;;;;;11.53;89.29;100796.13;6135037;23;20013;-70
2022/11/24 11:31:02;;;;;;;5.63;5.18;;;;;;;11.31;89.22;100786.78;6096391;23;20024;-70
2022/11/24 11:33:55;;;;;;;11.75;5.35;;;;;;;11.32;88.69;100798.13;6149787;23;20020;-70
2022/11/24 11:37:00;;;;;;;5.75;5.25;;;;;;;11.38;90.13;100768.88;6178886;23;20061;-71
2022/11/24 11:39:40;;;;;;;10.98;4.35;;;;;;;11.27;88.47;100730.06;6143605;23;20064;-70
2022/11/24 11:42:37;;;;;;;5.22;4.85;;;;;;;11.73;87.57;100784.53;6157770;23;20040;-69
2022/11/24 11:45:34;;;;;;;9.88;5.78;;;;;;;11.28;87.07;100712.53;6147606;23;20375;-70
2022/11/24 11:48:01;;;;;;;5.93;4.70;;;;;;;11.59;86.75;100782.66;6173995;23;20107;-69
2022/11/24 11:51:04;;;;;;;5.10;4.75;;;;;;;11.78;87.71;100787.72;6147355;23;20096;-69
2022/11/24 11:53:59;;;;;;;5.38;4.97;;;;;;;11.51;86.54;100724.41;6180606;23;20040;-70
2022/11/24 11:56:33;;;;;;;4.50;4.30;;;;;;;10.95;86.55;100614.50;6152772;23;20092;-70
2022/11/24 11:59:15;;;;;;;5.00;4.70;;;;;;;12.05;85.60;100771.38;6177908;23;20471;-69